createdAt,value
2022-08-28T00:00:38.112Z,0.00
2022-08-28T00:01:38.082Z,0.00
2022-08-28T00:02:38.143Z,0.00
2022-08-28T00:03:38.105Z,0.00
2022-08-28T00:04:38.158Z,0.00
2022-08-28T00:05:38.057Z,0.00
2022-08-28T00:06:38.036Z,0.00
2022-08-28T00:07:38.051Z,0.00
2022-08-28T00:08:38.033Z,0.00
2022-08-28T00:09:38.002Z,0.00
2022-08-28T00:10:38.007Z,0.00
2022-08-28T00:11:37.998Z,0.00
2022-08-28T00:12:37.982Z,0.00
2022-08-28T00:13:37.988Z,0.00
2022-08-28T00:14:37.964Z,0.00
2022-08-28T00:15:37.978Z,0.00
2022-08-28T00:16:38.024Z,0.00
2022-08-28T00:17:37.905Z,0.00
2022-08-28T00:18:37.909Z,0.00
2022-08-28T00:19:38.867Z,0.00
2022-08-28T00:20:37.873Z,0.00
2022-08-28T00:21:37.857Z,0.00
2022-08-28T00:22:37.851Z,0.00
2022-08-28T00:23:42.977Z,0.00
2022-08-28T00:24:38.847Z,0.00
2022-08-28T00:25:37.813Z,0.00
2022-08-28T00:26:37.805Z,0.00
2022-08-28T00:27:37.790Z,0.00
2022-08-28T00:28:37.773Z,0.00
2022-08-28T00:29:37.766Z,0.00
2022-08-28T00:30:37.768Z,0.00
2022-08-28T00:31:37.790Z,0.00
2022-08-28T00:32:37.734Z,0.00
2022-08-28T00:33:37.717Z,0.00
2022-08-28T00:34:37.709Z,0.00
2022-08-28T00:35:37.710Z,0.00
2022-08-28T00:36:37.700Z,0.00
2022-08-28T00:37:37.671Z,0.00
2022-08-28T00:38:37.656Z,0.00
2022-08-28T00:39:37.652Z,0.00
2022-08-28T00:40:37.720Z,0.00
2022-08-28T00:41:37.637Z,0.00
2022-08-28T00:42:37.620Z,0.00
2022-08-28T00:43:37.607Z,0.00
2022-08-28T00:44:37.590Z,0.00
2022-08-28T00:45:40.117Z,0.00
2022-08-28T00:46:37.649Z,0.00
2022-08-28T00:47:37.550Z,0.00
2022-08-28T00:48:37.558Z,0.00
2022-08-28T00:49:37.542Z,0.00
2022-08-28T00:50:37.528Z,0.00
2022-08-28T00:51:37.533Z,0.00
2022-08-28T00:52:37.500Z,0.00
2022-08-28T00:53:37.482Z,0.00
2022-08-28T00:54:37.482Z,0.00
2022-08-28T00:55:37.459Z,0.00
2022-08-28T00:56:37.462Z,0.00
2022-08-28T00:57:37.439Z,0.00
2022-08-28T00:58:37.442Z,0.00
2022-08-28T00:59:37.420Z,0.00
2022-08-28T01:00:37.402Z,0.00
2022-08-28T01:01:37.420Z,0.00
2022-08-28T01:02:37.430Z,0.00
2022-08-28T01:03:37.376Z,0.00
2022-08-28T01:04:37.364Z,0.00
2022-08-28T01:05:37.366Z,0.00
2022-08-28T01:06:37.358Z,0.00
2022-08-28T01:07:37.329Z,0.00
2022-08-28T01:08:37.319Z,0.00
2022-08-28T01:09:37.303Z,0.00
2022-08-28T01:10:37.295Z,0.00
2022-08-28T01:11:37.283Z,0.00
2022-08-28T01:12:37.283Z,0.00
2022-08-28T01:13:37.262Z,0.00
2022-08-28T01:14:37.246Z,0.00
2022-08-28T01:15:37.277Z,0.00
2022-08-28T01:16:37.221Z,0.00
2022-08-28T01:17:37.225Z,0.00
2022-08-28T01:18:38.198Z,0.00
2022-08-28T01:19:37.195Z,0.00
2022-08-28T01:20:37.168Z,0.00
2022-08-28T01:21:37.162Z,0.00
2022-08-28T01:22:37.168Z,0.00
2022-08-28T01:23:37.144Z,0.00
2022-08-28T01:24:37.132Z,0.00
2022-08-28T01:25:37.137Z,0.00
2022-08-28T01:26:37.109Z,0.00
2022-08-28T01:27:37.114Z,0.00
2022-08-28T01:28:37.080Z,0.00
2022-08-28T01:29:37.078Z,0.00
2022-08-28T01:30:37.064Z,0.00
2022-08-28T01:31:37.107Z,0.00
2022-08-28T01:32:37.030Z,0.00
2022-08-28T01:33:37.041Z,0.00
2022-08-28T01:34:38.018Z,0.00
2022-08-28T01:35:37.003Z,0.00
2022-08-28T01:36:36.988Z,0.00
2022-08-28T01:37:36.999Z,0.00
2022-08-28T01:38:36.987Z,0.00
2022-08-28T01:39:36.959Z,0.00
2022-08-28T01:40:37.057Z,0.00
2022-08-28T01:41:36.938Z,0.00
2022-08-28T01:42:36.928Z,0.00
2022-08-28T01:43:36.946Z,0.00
2022-08-28T01:44:36.900Z,0.00
2022-08-28T01:45:36.891Z,0.00
2022-08-28T01:46:36.915Z,0.00
2022-08-28T01:47:36.866Z,0.00
2022-08-28T01:48:36.885Z,0.00
2022-08-28T01:49:36.841Z,0.00
2022-08-28T01:50:36.829Z,0.00
2022-08-28T01:51:38.185Z,0.00
2022-08-28T01:52:36.811Z,0.00
2022-08-28T01:53:36.805Z,0.00
2022-08-28T01:54:36.797Z,0.00
2022-08-28T01:55:36.780Z,0.00
2022-08-28T01:56:36.757Z,0.00
2022-08-28T01:57:36.746Z,0.00
2022-08-28T01:58:38.399Z,0.00
2022-08-28T01:59:36.753Z,0.00
2022-08-28T02:00:36.714Z,0.00
2022-08-28T02:01:36.775Z,0.00
2022-08-28T02:02:36.692Z,0.00
2022-08-28T02:03:36.683Z,0.00
2022-08-28T02:04:36.751Z,0.00
2022-08-28T02:05:36.661Z,0.00
2022-08-28T02:06:36.655Z,0.00
2022-08-28T02:07:36.657Z,0.00
2022-08-28T02:08:36.626Z,0.00
2022-08-28T02:09:36.636Z,0.00
2022-08-28T02:10:36.598Z,0.00
2022-08-28T02:11:36.587Z,0.00
2022-08-28T02:12:36.570Z,0.00
2022-08-28T02:13:36.567Z,0.00
2022-08-28T02:14:36.571Z,0.00
2022-08-28T02:15:36.596Z,0.00
2022-08-28T02:16:36.526Z,0.00
2022-08-28T02:17:36.507Z,0.00
2022-08-28T02:18:36.510Z,0.00
2022-08-28T02:19:36.515Z,0.00
2022-08-28T02:20:36.477Z,0.00
2022-08-28T02:21:36.481Z,0.00
2022-08-28T02:22:36.466Z,0.00
2022-08-28T02:23:36.452Z,0.00
2022-08-28T02:24:36.447Z,0.00
2022-08-28T02:25:36.419Z,0.00
2022-08-28T02:26:36.411Z,0.00
2022-08-28T02:27:36.398Z,0.00
2022-08-28T02:28:36.389Z,0.00
2022-08-28T02:29:36.397Z,0.00
2022-08-28T02:30:36.433Z,0.00
2022-08-28T02:31:36.370Z,0.00
2022-08-28T02:32:36.340Z,0.00
2022-08-28T02:33:36.339Z,0.00
2022-08-28T02:34:36.344Z,0.00
2022-08-28T02:35:36.313Z,0.00
2022-08-28T02:36:36.301Z,0.00
2022-08-28T02:37:36.283Z,0.00
2022-08-28T02:38:36.299Z,0.00
2022-08-28T02:39:36.271Z,0.00
2022-08-28T02:40:36.304Z,0.00
2022-08-28T02:41:36.240Z,0.00
2022-08-28T02:42:36.230Z,0.00
2022-08-28T02:43:36.219Z,0.00
2022-08-28T02:44:36.201Z,0.00
2022-08-28T02:45:36.224Z,0.00
2022-08-28T02:46:36.217Z,0.00
2022-08-28T02:47:36.169Z,0.00
2022-08-28T02:48:36.152Z,0.00
2022-08-28T02:49:36.523Z,0.00
2022-08-28T02:50:36.133Z,0.00
2022-08-28T02:51:36.153Z,0.00
2022-08-28T02:52:36.102Z,0.00
2022-08-28T02:53:36.104Z,0.00
2022-08-28T02:54:36.085Z,0.00
2022-08-28T02:55:36.075Z,0.00
2022-08-28T02:56:36.082Z,0.00
2022-08-28T02:57:36.057Z,0.00
2022-08-28T02:58:36.039Z,0.00
2022-08-28T02:59:36.026Z,0.00
2022-08-28T03:00:36.027Z,0.00
2022-08-28T03:01:36.062Z,0.00
2022-08-28T03:02:36.055Z,0.00
2022-08-28T03:03:35.988Z,0.00
2022-08-28T03:04:35.967Z,0.00
2022-08-28T03:05:35.958Z,0.00
2022-08-28T03:06:35.965Z,0.00
2022-08-28T03:07:35.945Z,0.00
2022-08-28T03:08:35.927Z,0.00
2022-08-28T03:09:35.917Z,0.00
2022-08-28T03:10:35.903Z,0.00
2022-08-28T03:11:35.909Z,0.00
2022-08-28T03:12:35.878Z,0.00
2022-08-28T03:13:35.868Z,0.00
2022-08-28T03:14:35.860Z,0.00
2022-08-28T03:15:35.853Z,0.00
2022-08-28T03:16:35.852Z,0.00
2022-08-28T03:17:35.828Z,0.00
2022-08-28T03:18:35.804Z,0.00
2022-08-28T03:19:35.809Z,0.00
2022-08-28T03:20:35.789Z,0.00
2022-08-28T03:21:35.777Z,0.00
2022-08-28T03:22:35.782Z,0.00
2022-08-28T03:23:35.746Z,0.00
2022-08-28T03:24:35.740Z,0.00
2022-08-28T03:25:35.729Z,0.00
2022-08-28T03:26:35.717Z,0.00
2022-08-28T03:27:35.711Z,0.00
2022-08-28T03:28:35.713Z,0.00
2022-08-28T03:29:35.675Z,0.00
2022-08-28T03:30:35.740Z,0.00
2022-08-28T03:31:35.663Z,0.00
2022-08-28T03:32:35.639Z,0.00
2022-08-28T03:33:35.699Z,0.00
2022-08-28T03:34:35.612Z,0.00
2022-08-28T03:35:35.612Z,0.00
2022-08-28T03:36:35.596Z,0.00
2022-08-28T03:37:35.587Z,0.00
2022-08-28T03:38:35.590Z,0.00
2022-08-28T03:39:35.582Z,0.00
2022-08-28T03:40:35.578Z,0.00
2022-08-28T03:41:35.534Z,0.00
2022-08-28T03:42:35.529Z,0.00
2022-08-28T03:43:35.524Z,0.00
2022-08-28T03:44:35.512Z,0.00
2022-08-28T03:45:35.532Z,0.00
2022-08-28T03:46:35.477Z,0.00
2022-08-28T03:47:35.464Z,0.00
2022-08-28T03:48:35.458Z,0.00
2022-08-28T03:49:35.477Z,0.00
2022-08-28T03:50:35.423Z,0.00
2022-08-28T03:51:35.420Z,0.00
2022-08-28T03:52:35.413Z,0.00
2022-08-28T03:53:35.394Z,0.00
2022-08-28T03:54:35.404Z,0.00
2022-08-28T03:55:35.365Z,0.00
2022-08-28T03:56:35.367Z,0.00
2022-08-28T03:57:35.357Z,0.00
2022-08-28T03:58:35.344Z,0.00
2022-08-28T03:59:35.349Z,0.00
2022-08-28T04:00:35.312Z,0.00
2022-08-28T04:01:35.337Z,0.00
2022-08-28T04:02:35.292Z,0.00
2022-08-28T04:03:35.376Z,0.00
2022-08-28T04:04:35.283Z,0.00
2022-08-28T04:05:35.244Z,0.00
2022-08-28T04:06:36.141Z,0.00
2022-08-28T04:07:35.238Z,0.00
2022-08-28T04:08:35.217Z,0.00
2022-08-28T04:09:35.227Z,0.00
2022-08-28T04:10:35.193Z,0.00
2022-08-28T04:11:35.188Z,0.00
2022-08-28T04:12:35.502Z,0.00
2022-08-28T04:13:35.164Z,0.00
2022-08-28T04:14:35.168Z,0.00
2022-08-28T04:15:35.139Z,0.00
2022-08-28T04:16:35.161Z,0.00
2022-08-28T04:17:35.116Z,0.00
2022-08-28T04:18:35.107Z,0.00
2022-08-28T04:19:35.097Z,0.00
2022-08-28T04:20:35.103Z,0.00
2022-08-28T04:21:35.069Z,0.00
2022-08-28T04:22:35.050Z,0.00
2022-08-28T04:23:35.049Z,0.00
2022-08-28T04:24:35.037Z,0.00
2022-08-28T04:25:35.039Z,4.00
2022-08-28T04:26:35.012Z,4.00
2022-08-28T04:27:35.002Z,4.00
2022-08-28T04:28:34.992Z,0.00
2022-08-28T04:29:34.973Z,4.00
2022-08-28T04:30:34.971Z,4.00
2022-08-28T04:31:34.981Z,4.00
2022-08-28T04:32:34.933Z,4.00
2022-08-28T04:33:34.925Z,4.00
2022-08-28T04:34:34.911Z,4.00
2022-08-28T04:35:34.919Z,8.00
2022-08-28T04:36:34.891Z,8.00
2022-08-28T04:37:34.881Z,8.00
2022-08-28T04:38:34.873Z,12.00
2022-08-28T04:39:34.862Z,8.00
2022-08-28T04:40:34.934Z,12.00
2022-08-28T04:41:34.844Z,12.00
2022-08-28T04:42:34.813Z,12.00
2022-08-28T04:43:34.814Z,16.00
2022-08-28T04:44:34.793Z,16.00
2022-08-28T04:45:34.815Z,16.00
2022-08-28T04:46:34.793Z,20.00
2022-08-28T04:47:34.776Z,20.00
2022-08-28T04:48:34.748Z,24.00
2022-08-28T04:49:34.741Z,24.00
2022-08-28T04:50:34.735Z,24.00
2022-08-28T04:51:37.779Z,28.00
2022-08-28T04:52:35.731Z,32.00
2022-08-28T04:53:34.705Z,32.00
2022-08-28T04:54:34.677Z,32.00
2022-08-28T04:55:53.701Z,36.00
2022-08-28T04:56:35.657Z,40.00
2022-08-28T04:57:36.563Z,40.00
2022-08-28T04:58:34.626Z,44.00
2022-08-28T04:59:34.626Z,48.00
2022-08-28T05:00:34.607Z,52.00
2022-08-28T05:01:34.740Z,56.00
2022-08-28T05:02:34.689Z,56.00
2022-08-28T05:03:34.581Z,56.00
2022-08-28T05:04:34.566Z,64.00
2022-08-28T05:05:34.557Z,68.00
2022-08-28T05:06:34.540Z,72.00
2022-08-28T05:07:34.548Z,72.00
2022-08-28T05:08:34.519Z,80.00
2022-08-28T05:09:34.509Z,88.00
2022-08-28T05:10:34.489Z,96.00
2022-08-28T05:11:35.222Z,104.00
2022-08-28T05:12:34.490Z,108.00
2022-08-28T05:13:34.454Z,116.00
2022-08-28T05:14:34.440Z,124.00
2022-08-28T05:15:34.440Z,132.00
2022-08-28T05:16:34.670Z,136.00
2022-08-28T05:17:34.420Z,144.00
2022-08-28T05:18:34.401Z,152.00
2022-08-28T05:19:34.380Z,156.00
2022-08-28T05:20:34.381Z,164.00
2022-08-28T05:21:34.367Z,180.00
2022-08-28T05:22:34.378Z,192.00
2022-08-28T05:23:34.351Z,208.00
2022-08-28T05:24:34.350Z,228.00
2022-08-28T05:25:34.316Z,248.00
2022-08-28T05:26:34.313Z,268.00
2022-08-28T05:27:34.301Z,284.00
2022-08-28T05:28:34.324Z,296.00
2022-08-28T05:29:34.277Z,316.00
2022-08-28T05:30:34.263Z,336.00
2022-08-28T05:31:34.267Z,368.00
2022-08-28T05:32:34.241Z,400.00
2022-08-28T05:33:34.228Z,420.00
2022-08-28T05:34:34.221Z,428.00
2022-08-28T05:35:34.215Z,436.00
2022-08-28T05:36:34.191Z,460.00
2022-08-28T05:37:34.179Z,504.00
2022-08-28T05:38:34.183Z,588.00
2022-08-28T05:39:34.154Z,684.00
2022-08-28T05:40:34.222Z,760.00
2022-08-28T05:41:34.133Z,808.00
2022-08-28T05:42:38.796Z,836.00
2022-08-28T05:43:35.125Z,852.00
2022-08-28T05:44:34.098Z,884.00
2022-08-28T05:45:34.134Z,928.00
2022-08-28T05:46:34.074Z,984.00
2022-08-28T05:47:34.058Z,1044.00
2022-08-28T05:48:35.204Z,1116.00
2022-08-28T05:49:35.092Z,1196.00
2022-08-28T05:50:34.016Z,1284.00
2022-08-28T05:51:34.016Z,1332.00
2022-08-28T05:52:34.006Z,1360.00
2022-08-28T05:53:34.006Z,1448.00
2022-08-28T05:54:33.999Z,1360.00
2022-08-28T05:55:34.053Z,1372.00
2022-08-28T05:56:33.960Z,1376.00
2022-08-28T05:57:33.957Z,1348.00
2022-08-28T05:58:33.940Z,1284.00
2022-08-28T05:59:33.945Z,1320.00
2022-08-28T06:00:33.912Z,1404.00
2022-08-28T06:01:33.947Z,1336.00
2022-08-28T06:02:33.889Z,1404.00
2022-08-28T06:03:33.883Z,1380.00
2022-08-28T06:04:33.948Z,1424.00
2022-08-28T06:05:33.860Z,1636.00
2022-08-28T06:06:33.851Z,1568.00
2022-08-28T06:07:33.842Z,1432.00
2022-08-28T06:08:33.821Z,1460.00
2022-08-28T06:09:33.828Z,1832.00
2022-08-28T06:10:33.809Z,2176.00
2022-08-28T06:11:33.801Z,2256.00
2022-08-28T06:12:33.777Z,2188.00
2022-08-28T06:13:33.767Z,2076.00
2022-08-28T06:14:33.771Z,3060.00
2022-08-28T06:15:33.751Z,3280.00
2022-08-28T06:16:33.765Z,3428.00
2022-08-28T06:17:33.720Z,3440.00
2022-08-28T06:18:33.701Z,3640.00
2022-08-28T06:19:34.020Z,3792.00
2022-08-28T06:20:33.723Z,4404.00
2022-08-28T06:21:33.675Z,5144.00
2022-08-28T06:22:33.651Z,5564.00
2022-08-28T06:23:33.652Z,5756.00
2022-08-28T06:24:33.631Z,5856.00
2022-08-28T06:25:33.647Z,6012.00
2022-08-28T06:26:33.613Z,5908.00
2022-08-28T06:27:33.603Z,5944.00
2022-08-28T06:28:33.581Z,5888.00
2022-08-28T06:29:33.591Z,5912.00
2022-08-28T06:30:33.590Z,6020.00
2022-08-28T06:31:33.931Z,6008.00
2022-08-28T06:32:33.573Z,5996.00
2022-08-28T06:33:33.531Z,5956.00
2022-08-28T06:34:33.512Z,5992.00
2022-08-28T06:35:33.494Z,5748.00
2022-08-28T06:36:33.503Z,5584.00
2022-08-28T06:37:33.482Z,6112.00
2022-08-28T06:38:33.476Z,6464.00
2022-08-28T06:39:33.467Z,6544.00
2022-08-28T06:40:33.509Z,6620.00
2022-08-28T06:41:33.455Z,6768.00
2022-08-28T06:42:33.426Z,6608.00
2022-08-28T06:43:33.416Z,6904.00
2022-08-28T06:44:33.405Z,6868.00
2022-08-28T06:45:33.436Z,6916.00
2022-08-28T06:46:33.402Z,6928.00
2022-08-28T06:47:33.382Z,6988.00
2022-08-28T06:48:33.356Z,6992.00
2022-08-28T06:49:33.364Z,6876.00
2022-08-28T06:50:33.340Z,7120.00
2022-08-28T06:51:33.352Z,7636.00
2022-08-28T06:52:33.299Z,7896.00
2022-08-28T06:53:33.299Z,8016.00
2022-08-28T06:54:33.300Z,7980.00
2022-08-28T06:55:33.279Z,8144.00
2022-08-28T06:56:33.283Z,7968.00
2022-08-28T06:57:33.291Z,7976.00
2022-08-28T06:58:33.268Z,7852.00
2022-08-28T06:59:33.231Z,7628.00
2022-08-28T07:00:33.209Z,7348.00
2022-08-28T07:01:33.328Z,7084.00
2022-08-28T07:02:33.250Z,6860.00
2022-08-28T07:03:33.193Z,6260.00
2022-08-28T07:04:33.186Z,6000.00
2022-08-28T07:05:33.181Z,5856.00
2022-08-28T07:06:33.148Z,5896.00
2022-08-28T07:07:33.198Z,6008.00
2022-08-28T07:08:33.133Z,5632.00
2022-08-28T07:09:33.138Z,5800.00
2022-08-28T07:10:33.103Z,5696.00
2022-08-28T07:11:33.094Z,5676.00
2022-08-28T07:12:33.124Z,5612.00
2022-08-28T07:13:33.959Z,5500.00
2022-08-28T07:14:33.074Z,5472.00
2022-08-28T07:15:33.127Z,5388.00
2022-08-28T07:16:33.034Z,5400.00
2022-08-28T07:17:33.033Z,5528.00
2022-08-28T07:18:33.035Z,5444.00
2022-08-28T07:19:32.995Z,5480.00
2022-08-28T07:20:32.986Z,5404.00
2022-08-28T07:21:32.987Z,3796.00
2022-08-28T07:22:33.966Z,4636.00
2022-08-28T07:23:32.974Z,4748.00
2022-08-28T07:24:32.953Z,3824.00
2022-08-28T07:25:32.938Z,3816.00
2022-08-28T07:26:32.919Z,5628.00
2022-08-28T07:27:32.926Z,5488.00
2022-08-28T07:28:32.908Z,5368.00
2022-08-28T07:29:32.908Z,4644.00
2022-08-28T07:30:32.888Z,5048.00
2022-08-28T07:31:32.971Z,3496.00
2022-08-28T07:32:32.852Z,4120.00
2022-08-28T07:33:32.864Z,4404.00
2022-08-28T07:34:32.855Z,3428.00
2022-08-28T07:35:32.840Z,2096.00
2022-08-28T07:36:32.823Z,1888.00
2022-08-28T07:37:32.822Z,1808.00
2022-08-28T07:38:32.781Z,1692.00
2022-08-28T07:39:32.794Z,1704.00
2022-08-28T07:40:32.842Z,1712.00
2022-08-28T07:41:32.752Z,1744.00
2022-08-28T07:42:35.575Z,2112.00
2022-08-28T07:43:32.768Z,1896.00
2022-08-28T07:44:32.853Z,1868.00
2022-08-28T07:45:32.826Z,1940.00
2022-08-28T07:46:32.698Z,2000.00
2022-08-28T07:47:32.693Z,3224.00
2022-08-28T07:48:32.691Z,2992.00
2022-08-28T07:49:32.684Z,3596.00
2022-08-28T07:50:32.643Z,3620.00
2022-08-28T07:51:32.641Z,3660.00
2022-08-28T07:52:32.636Z,3500.00
2022-08-28T07:53:36.341Z,2808.00
2022-08-28T07:54:32.599Z,3368.00
2022-08-28T07:55:32.614Z,1380.00
2022-08-28T07:56:32.597Z,1512.00
2022-08-28T07:57:32.575Z,2572.00
2022-08-28T07:58:32.558Z,3508.00
2022-08-28T07:59:36.913Z,1744.00
2022-08-28T08:00:32.556Z,1324.00
2022-08-28T08:01:32.573Z,1292.00
2022-08-28T08:02:32.522Z,3412.00
2022-08-28T08:03:32.694Z,3404.00
2022-08-28T08:04:32.497Z,3388.00
2022-08-28T08:05:32.501Z,2812.00
2022-08-28T08:06:34.344Z,3020.00
2022-08-28T08:07:32.459Z,3048.00
2022-08-28T08:08:32.447Z,1500.00
2022-08-28T08:09:32.461Z,3244.00
2022-08-28T08:10:34.176Z,1948.00
2022-08-28T08:11:32.803Z,2108.00
2022-08-28T08:12:32.403Z,2984.00
2022-08-28T08:13:32.394Z,3928.00
2022-08-28T08:14:32.378Z,4096.00
2022-08-28T08:15:32.412Z,3628.00
2022-08-28T08:16:32.353Z,3580.00
2022-08-28T08:17:32.344Z,3320.00
2022-08-28T08:18:32.323Z,2008.00
2022-08-28T08:19:32.331Z,3136.00
2022-08-28T08:20:32.323Z,3004.00
2022-08-28T08:21:32.290Z,2948.00
2022-08-28T08:22:32.287Z,2880.00
2022-08-28T08:23:32.278Z,2880.00
2022-08-28T08:24:32.260Z,2900.00
2022-08-28T08:25:33.613Z,2916.00
2022-08-28T08:26:32.239Z,2868.00
2022-08-28T08:27:32.230Z,2904.00
2022-08-28T08:28:32.224Z,2916.00
2022-08-28T08:29:32.242Z,2912.00
2022-08-28T08:30:32.204Z,2860.00
2022-08-28T08:31:32.275Z,2808.00
2022-08-28T08:32:32.162Z,2820.00
2022-08-28T08:33:32.166Z,2800.00
2022-08-28T08:34:32.142Z,2792.00
2022-08-28T08:35:32.181Z,2828.00
2022-08-28T08:36:32.129Z,2856.00
2022-08-28T08:37:32.124Z,2884.00
2022-08-28T08:38:32.108Z,2868.00
2022-08-28T08:39:32.389Z,2812.00
2022-08-28T08:40:32.143Z,2788.00
2022-08-28T08:41:32.068Z,2744.00
2022-08-28T08:42:32.057Z,2732.00
2022-08-28T08:43:32.059Z,2804.00
2022-08-28T08:44:33.601Z,2828.00
2022-08-28T08:45:32.050Z,2876.00
2022-08-28T08:46:32.074Z,2868.00
2022-08-28T08:47:32.013Z,2788.00
2022-08-28T08:48:31.983Z,2764.00
2022-08-28T08:49:31.977Z,2752.00
2022-08-28T08:50:31.992Z,2744.00
2022-08-28T08:51:31.976Z,2820.00
2022-08-28T08:52:31.947Z,2856.00
2022-08-28T08:53:31.939Z,2920.00
2022-08-28T08:54:31.916Z,3036.00
2022-08-28T08:55:31.929Z,3016.00
2022-08-28T08:56:34.501Z,2916.00
2022-08-28T08:57:31.914Z,2552.00
2022-08-28T08:58:31.874Z,2740.00
2022-08-28T08:59:31.871Z,2492.00
2022-08-28T09:00:31.859Z,2376.00
2022-08-28T09:01:31.989Z,1724.00
2022-08-28T09:02:31.832Z,1596.00
2022-08-28T09:03:31.878Z,2592.00
2022-08-28T09:04:31.820Z,2600.00
2022-08-28T09:05:31.798Z,2448.00
2022-08-28T09:06:31.810Z,1660.00
2022-08-28T09:07:31.773Z,1544.00
2022-08-28T09:08:31.765Z,1372.00
2022-08-28T09:09:31.755Z,1440.00
2022-08-28T09:10:31.741Z,1332.00
2022-08-28T09:11:31.745Z,1296.00
2022-08-28T09:12:31.739Z,1328.00
2022-08-28T09:13:31.713Z,1344.00
2022-08-28T09:14:31.697Z,1420.00
2022-08-28T09:15:31.710Z,1424.00
2022-08-28T09:16:31.678Z,1472.00
2022-08-28T09:17:31.685Z,1512.00
2022-08-28T09:18:31.641Z,1520.00
2022-08-28T09:19:31.648Z,1504.00
2022-08-28T09:20:33.270Z,2208.00
2022-08-28T09:21:31.619Z,2488.00
2022-08-28T09:22:31.607Z,2572.00
2022-08-28T09:23:31.589Z,2660.00
2022-08-28T09:24:31.579Z,2684.00
2022-08-28T09:25:31.570Z,2744.00
2022-08-28T09:26:31.563Z,2816.00
2022-08-28T09:27:31.593Z,2880.00
2022-08-28T09:28:31.541Z,2756.00
2022-08-28T09:29:31.521Z,2976.00
2022-08-28T09:30:31.512Z,2960.00
2022-08-28T09:31:31.579Z,2504.00
2022-08-28T09:32:31.500Z,2068.00
2022-08-28T09:33:31.500Z,2516.00
2022-08-28T09:34:35.489Z,2704.00
2022-08-28T09:35:32.460Z,1824.00
2022-08-28T09:36:31.470Z,1660.00
2022-08-28T09:37:31.433Z,1628.00
2022-08-28T09:38:31.415Z,1588.00
2022-08-28T09:39:31.431Z,1528.00
2022-08-28T09:40:31.487Z,1480.00
2022-08-28T09:41:31.392Z,1424.00
2022-08-28T09:42:31.383Z,1420.00
2022-08-28T09:43:31.374Z,1480.00
2022-08-28T09:44:31.360Z,1600.00
2022-08-28T09:45:31.358Z,1600.00
2022-08-28T09:46:31.445Z,1580.00
2022-08-28T09:47:31.314Z,1672.00
2022-08-28T09:48:31.306Z,1824.00
2022-08-28T09:49:31.295Z,1636.00
2022-08-28T09:50:31.301Z,2204.00
2022-08-28T09:51:31.285Z,2292.00
2022-08-28T09:52:31.267Z,2228.00
2022-08-28T09:53:31.257Z,2228.00
2022-08-28T09:54:31.237Z,2260.00
2022-08-28T09:55:31.224Z,2200.00
2022-08-28T09:56:31.247Z,2144.00
2022-08-28T09:57:31.205Z,1448.00
2022-08-28T09:58:31.198Z,1584.00
2022-08-28T09:59:31.178Z,1816.00
2022-08-28T10:00:31.169Z,1136.00
2022-08-28T10:01:31.253Z,1864.00
2022-08-28T10:02:31.166Z,1820.00
2022-08-28T10:03:31.175Z,1800.00
2022-08-28T10:04:31.148Z,1760.00
2022-08-28T10:05:31.108Z,1756.00
2022-08-28T10:06:31.119Z,1756.00
2022-08-28T10:07:31.081Z,1772.00
2022-08-28T10:08:31.077Z,1796.00
2022-08-28T10:09:31.062Z,1792.00
2022-08-28T10:10:31.049Z,1764.00
2022-08-28T10:11:31.034Z,1708.00
2022-08-28T10:12:31.051Z,1664.00
2022-08-28T10:13:31.021Z,1664.00
2022-08-28T10:14:31.001Z,1652.00
2022-08-28T10:15:31.042Z,1624.00
2022-08-28T10:16:30.977Z,1608.00
2022-08-28T10:17:30.994Z,1520.00
2022-08-28T10:18:30.953Z,1580.00
2022-08-28T10:19:30.942Z,1568.00
2022-08-28T10:20:30.940Z,1596.00
2022-08-28T10:21:30.925Z,1584.00
2022-08-28T10:22:30.925Z,1572.00
2022-08-28T10:23:30.909Z,1540.00
2022-08-28T10:24:30.893Z,1520.00
2022-08-28T10:25:30.884Z,1500.00
2022-08-28T10:26:30.865Z,1496.00
2022-08-28T10:27:30.866Z,1476.00
2022-08-28T10:28:30.836Z,1436.00
2022-08-28T10:29:30.840Z,1440.00
2022-08-28T10:30:30.829Z,1284.00
2022-08-28T10:31:31.697Z,1404.00
2022-08-28T10:32:30.819Z,1396.00
2022-08-28T10:33:30.789Z,1408.00
2022-08-28T10:34:30.806Z,1380.00
2022-08-28T10:35:30.758Z,1352.00
2022-08-28T10:36:34.517Z,1340.00
2022-08-28T10:37:30.754Z,1336.00
2022-08-28T10:38:30.738Z,1324.00
2022-08-28T10:39:30.710Z,1296.00
2022-08-28T10:40:30.817Z,1296.00
2022-08-28T10:41:30.678Z,1288.00
2022-08-28T10:42:35.740Z,1268.00
2022-08-28T10:43:31.684Z,1260.00
2022-08-28T10:44:30.674Z,1252.00
2022-08-28T10:45:30.639Z,1240.00
2022-08-28T10:46:30.723Z,1232.00
2022-08-28T10:47:30.652Z,1224.00
2022-08-28T10:48:30.607Z,1208.00
2022-08-28T10:49:30.596Z,1196.00
2022-08-28T10:50:30.590Z,1188.00
2022-08-28T10:51:35.255Z,1168.00
2022-08-28T10:52:31.579Z,1156.00
2022-08-28T10:53:30.552Z,1156.00
2022-08-28T10:54:30.537Z,1148.00
2022-08-28T10:55:30.522Z,1144.00
2022-08-28T10:56:30.510Z,1124.00
2022-08-28T10:57:30.500Z,1124.00
2022-08-28T10:58:30.511Z,1116.00
2022-08-28T10:59:30.472Z,1112.00
2022-08-28T11:00:30.461Z,1096.00
2022-08-28T11:01:30.549Z,1100.00
2022-08-28T11:02:30.470Z,1104.00
2022-08-28T11:03:35.012Z,1084.00
2022-08-28T11:04:31.413Z,1072.00
2022-08-28T11:05:30.406Z,1064.00
2022-08-28T11:06:30.405Z,1056.00
2022-08-28T11:07:30.407Z,1048.00
2022-08-28T11:08:30.373Z,1040.00
2022-08-28T11:09:30.379Z,1040.00
2022-08-28T11:10:30.344Z,1028.00
2022-08-28T11:11:30.334Z,1024.00
2022-08-28T11:12:30.326Z,1016.00
2022-08-28T11:13:30.319Z,1004.00
2022-08-28T11:14:30.316Z,1000.00
2022-08-28T11:15:36.661Z,988.00
2022-08-28T11:16:31.305Z,984.00
2022-08-28T11:17:30.268Z,980.00
2022-08-28T11:18:30.278Z,968.00
2022-08-28T11:19:30.255Z,968.00
2022-08-28T11:20:30.238Z,956.00
2022-08-28T11:21:30.227Z,956.00
2022-08-28T11:22:30.237Z,944.00
2022-08-28T11:23:30.210Z,944.00
2022-08-28T11:24:30.210Z,936.00
2022-08-28T11:25:32.450Z,936.00
2022-08-28T11:26:30.171Z,928.00
2022-08-28T11:27:30.156Z,916.00
2022-08-28T11:28:30.141Z,920.00
2022-08-28T11:29:30.119Z,916.00
2022-08-28T11:30:30.169Z,912.00
2022-08-28T11:31:30.172Z,900.00
2022-08-28T11:32:30.090Z,892.00
2022-08-28T11:33:30.079Z,888.00
2022-08-28T11:34:30.070Z,888.00
2022-08-28T11:35:30.060Z,884.00
2022-08-28T11:36:30.062Z,876.00
2022-08-28T11:37:30.031Z,872.00
2022-08-28T11:38:30.028Z,868.00
2022-08-28T11:39:30.003Z,860.00
2022-08-28T11:40:30.065Z,856.00
2022-08-28T11:41:30.004Z,852.00
2022-08-28T11:42:29.971Z,844.00
2022-08-28T11:43:29.954Z,844.00
2022-08-28T11:44:29.955Z,836.00
2022-08-28T11:45:29.933Z,824.00
2022-08-28T11:46:29.964Z,820.00
2022-08-28T11:47:29.933Z,812.00
2022-08-28T11:48:29.894Z,816.00
2022-08-28T11:49:29.890Z,808.00
2022-08-28T11:50:29.892Z,808.00
2022-08-28T11:51:29.875Z,808.00
2022-08-28T11:52:29.863Z,804.00
2022-08-28T11:53:29.834Z,784.00
2022-08-28T11:54:29.850Z,788.00
2022-08-28T11:55:29.827Z,792.00
2022-08-28T11:56:31.840Z,792.00
2022-08-28T11:57:29.814Z,776.00
2022-08-28T11:58:29.787Z,776.00
2022-08-28T11:59:35.240Z,780.00
2022-08-28T12:00:30.777Z,772.00
2022-08-28T12:01:29.754Z,772.00
2022-08-28T12:02:29.791Z,764.00
2022-08-28T12:03:29.738Z,768.00
2022-08-28T12:04:29.778Z,764.00
2022-08-28T12:05:29.703Z,756.00
2022-08-28T12:06:29.688Z,776.00
2022-08-28T12:07:29.678Z,756.00
2022-08-28T12:08:29.690Z,756.00
2022-08-28T12:09:29.657Z,756.00
2022-08-28T12:10:29.645Z,760.00
2022-08-28T12:11:29.630Z,756.00
2022-08-28T12:12:29.627Z,756.00
2022-08-28T12:13:29.619Z,748.00
2022-08-28T12:14:29.601Z,744.00
2022-08-28T12:15:29.592Z,748.00
2022-08-28T12:16:29.681Z,740.00
2022-08-28T12:17:31.494Z,740.00
2022-08-28T12:18:29.553Z,732.00
2022-08-28T12:19:29.553Z,732.00
2022-08-28T12:20:29.531Z,728.00
2022-08-28T12:21:29.523Z,724.00
2022-08-28T12:22:29.506Z,728.00
2022-08-28T12:23:29.484Z,732.00
2022-08-28T12:24:29.474Z,732.00
2022-08-28T12:25:29.477Z,720.00
2022-08-28T12:26:29.461Z,732.00
2022-08-28T12:27:29.446Z,728.00
2022-08-28T12:28:29.435Z,728.00
2022-08-28T12:29:29.427Z,700.00
2022-08-28T12:30:29.513Z,700.00
2022-08-28T12:31:29.393Z,704.00
2022-08-28T12:32:29.396Z,692.00
2022-08-28T12:33:29.368Z,700.00
2022-08-28T12:34:29.362Z,700.00
2022-08-28T12:35:30.089Z,692.00
2022-08-28T12:36:29.335Z,700.00